Time;durP1;ratioP1;P1;durP2;ratioP2;P2;SDS_P1;SDS_P2;PMS_P1;PMS_P2;Temp;Humidity;BMP_temperature;BMP_pressure;BME280_temperature;BME280_humidity;BME280_pressure;Samples;Min_cycle;Max_cycle;Signal;HPM_P1;HPM_P2
2022/11/14 00:01:39;;;;;;;6.60;4.80;;;;;;;8.30;82.55;101443.02;124619;1309;98329;-73
2022/11/14 00:05:03;;;;;;;7.10;4.60;;;;;;;8.31;82.58;101440.99;124602;1300;98785;-74
2022/11/14 00:08:28;;;;;;;6.50;4.30;;;;;;;8.26;82.54;101442.52;124599;1307;99196;-74
2022/11/14 00:11:52;;;;;;;6.80;4.60;;;;;;;8.21;82.62;101440.39;124639;1303;98042;-74
2022/11/14 00:15:17;;;;;;;4.90;2.80;;;;;;;8.16;82.80;101436.13;124566;1309;99135;-75
2022/11/14 00:18:40;;;;;;;6.50;3.80;;;;;;;8.15;82.74;101440.63;124531;1302;98868;-75
2022/11/14 00:22:04;;;;;;;8.20;4.50;;;;;;;8.14;82.71;101444.42;124615;1292;98024;-75
2022/11/14 00:25:28;;;;;;;6.20;4.00;;;;;;;8.18;82.80;101440.63;124634;1302;99095;-75
2022/11/14 00:28:53;;;;;;;6.30;4.00;;;;;;;8.20;82.75;101441.48;124665;1303;98692;-73
2022/11/14 00:32:17;;;;;;;7.10;4.30;;;;;;;8.21;82.70;101437.54;124648;1302;98133;-73
2022/11/14 00:35:49;;;;;;;6.60;4.20;;;;;;;8.17;82.63;101438.20;124623;1307;99227;-73
2022/11/14 00:39:15;;;;;;;8.90;4.80;;;;;;;8.14;82.70;101438.93;124620;1301;98062;-73
2022/11/14 00:42:39;;;;;;;3.70;2.40;;;;;;;8.09;82.71;101438.44;124533;1303;99179;-74
2022/11/14 00:46:03;;;;;;;6.70;4.10;;;;;;;8.06;82.82;101436.67;124539;1305;98487;-73
2022/11/14 00:49:27;;;;;;;6.70;4.50;;;;;;;8.04;82.88;101442.34;124646;1299;99230;-75
2022/11/14 00:52:51;;;;;;;7.30;4.40;;;;;;;8.06;82.87;101439.83;124606;1299;98997;-75
2022/11/14 00:56:16;;;;;;;6.70;4.70;;;;;;;8.07;82.96;101436.75;124685;1300;98795;-76
2022/11/14 00:59:40;;;;;;;7.70;4.40;;;;;;;8.10;82.72;101427.38;124658;1300;99198;-75
2022/11/14 01:03:04;;;;;;;8.00;5.10;;;;;;;8.08;82.96;101425.73;124640;1301;98030;-75
2022/11/14 01:06:28;;;;;;;7.60;5.30;;;;;;;8.06;82.84;101426.02;124531;1308;98039;-76
2022/11/14 01:09:53;;;;;;;6.60;3.70;;;;;;;7.99;82.77;101422.27;124536;1300;98014;-76
2022/11/14 01:13:18;;;;;;;8.40;4.80;;;;;;;7.97;82.85;101417.09;124569;1300;99192;-75
2022/11/14 01:16:42;;;;;;;9.00;5.80;;;;;;;7.98;83.06;101408.89;124614;1300;99064;-73
2022/11/14 01:20:07;;;;;;;8.60;5.40;;;;;;;8.00;82.96;101404.48;124588;1292;98175;-74
2022/11/14 01:23:31;;;;;;;9.80;6.00;;;;;;;8.04;82.99;101396.91;124523;1300;98001;-74
2022/11/14 01:26:57;;;;;;;8.50;5.40;;;;;;;8.06;82.95;101386.13;124887;1292;99172;-74
2022/11/14 01:30:21;;;;;;;7.80;5.40;;;;;;;8.08;82.70;101384.66;124641;1302;98036;-74
2022/11/14 01:33:48;;;;;;;9.10;5.80;;;;;;;8.04;82.70;101384.39;124635;1299;98032;-75
2022/11/14 01:37:12;;;;;;;8.30;5.40;;;;;;;8.00;82.62;101379.71;124609;1300;98078;-75
2022/11/14 01:40:43;;;;;;;8.60;5.00;;;;;;;7.97;82.74;101378.31;124616;1299;98789;-74
2022/11/14 01:44:14;;;;;;;9.50;6.10;;;;;;;7.98;82.75;101371.86;124574;1302;98045;-75
2022/11/14 01:47:39;;;;;;;9.20;6.10;;;;;;;7.98;82.64;101365.10;124582;1303;99209;-74
2022/11/14 01:51:13;;;;;;;8.60;5.50;;;;;;;7.95;82.60;101367.46;124578;1300;99094;-74
2022/11/14 01:54:41;;;;;;;9.00;5.60;;;;;;;7.90;82.55;101358.04;124534;1299;98801;-73
2022/11/14 01:58:06;;;;;;;9.90;6.10;;;;;;;7.83;82.24;101353.58;124654;1296;99203;-75
2022/11/14 02:01:34;;;;;;;10.20;6.50;;;;;;;7.72;82.55;101350.80;124575;1308;98814;-72
2022/11/14 02:05:02;;;;;;;8.90;5.80;;;;;;;7.67;82.54;101350.80;124555;1298;98159;-73
2022/11/14 02:08:27;;;;;;;9.90;6.20;;;;;;;7.66;82.66;101350.68;124589;1309;98191;-73
2022/11/14 02:11:54;;;;;;;10.20;7.00;;;;;;;7.70;82.73;101348.70;124620;1309;99285;-73
2022/11/14 02:15:18;;;;;;;12.00;8.10;;;;;;;7.75;82.47;101337.00;124598;1309;99096;-73
2022/11/14 02:18:42;;;;;;;12.10;7.50;;;;;;;7.75;82.50;101338.20;124641;1300;99109;-73
2022/11/14 02:22:06;;;;;;;10.50;7.30;;;;;;;7.78;82.48;101341.34;124578;1303;98027;-74
2022/11/14 02:25:31;;;;;;;12.70;7.70;;;;;;;7.78;82.42;101335.20;124811;1300;98011;-73
2022/11/14 02:28:56;;;;;;;10.70;7.00;;;;;;;7.75;82.49;101333.77;124636;1299;99265;-73
2022/11/14 02:32:20;;;;;;;12.10;7.10;;;;;;;7.75;82.46;101337.17;124653;1299;98826;-73
2022/11/14 02:35:44;;;;;;;11.60;7.30;;;;;;;7.73;82.41;101333.02;124549;1300;99243;-73
2022/11/14 02:39:09;;;;;;;12.20;7.90;;;;;;;7.72;82.47;101336.09;124745;1301;98098;-75
2022/11/14 02:42:33;;;;;;;10.50;7.60;;;;;;;7.71;82.36;101332.30;124522;1300;178879;-74
2022/11/14 02:45:57;;;;;;;14.40;8.80;;;;;;;7.73;82.33;101326.13;124616;1303;98046;-75
2022/11/14 02:49:21;;;;;;;14.50;8.30;;;;;;;7.74;82.49;101320.05;124601;1299;98056;-74
2022/11/14 02:52:46;;;;;;;13.30;8.60;;;;;;;7.73;82.40;101319.41;124684;1300;99068;-75
2022/11/14 02:56:10;;;;;;;16.20;9.60;;;;;;;7.72;82.30;101318.94;124628;1316;98073;-75
2022/11/14 02:59:34;;;;;;;15.30;9.40;;;;;;;7.64;82.48;101320.55;124588;1309;98643;-74
2022/11/14 03:02:58;;;;;;;15.00;8.70;;;;;;;7.62;82.60;101320.33;124578;1303;99214;-76
2022/11/14 03:06:22;;;;;;;16.80;8.80;;;;;;;7.62;82.40;101317.15;124637;1295;99052;-75
2022/11/14 03:09:46;;;;;;;16.50;10.40;;;;;;;7.62;82.52;101318.17;124679;1298;99261;-76
2022/11/14 03:13:10;;;;;;;17.90;10.50;;;;;;;7.63;82.56;101321.85;124701;1302;98048;-76
2022/11/14 03:16:34;;;;;;;20.80;10.80;;;;;;;7.65;82.47;101315.20;124647;1300;98068;-78
2022/11/14 03:19:59;;;;;;;16.60;10.40;;;;;;;7.66;82.57;101308.02;124655;1295;99227;-77
2022/11/14 03:23:23;;;;;;;19.00;11.50;;;;;;;7.66;82.69;101302.37;124626;1300;98029;-78
2022/11/14 03:26:47;;;;;;;17.60;10.70;;;;;;;7.61;82.47;101304.31;124686;1292;98709;-78
2022/11/14 03:30:13;;;;;;;18.20;10.60;;;;;;;7.58;82.66;101303.50;124669;1299;98059;-78
2022/11/14 03:33:37;;;;;;;17.40;10.10;;;;;;;7.55;82.85;101301.88;124690;1300;98275;-77
2022/11/14 03:37:02;;;;;;;19.00;11.10;;;;;;;7.57;82.82;101295.23;124719;1302;98039;-76
2022/11/14 03:40:26;;;;;;;20.70;11.50;;;;;;;7.60;82.39;101288.83;124679;1307;99160;-77
2022/11/14 03:43:50;;;;;;;20.60;13.40;;;;;;;7.64;82.60;101283.92;124597;1294;98115;-76
2022/11/14 03:47:15;;;;;;;20.30;12.60;;;;;;;7.64;82.54;101284.04;124629;1309;98064;-76
2022/11/14 03:50:39;;;;;;;23.80;13.20;;;;;;;7.60;82.61;101278.88;124638;1302;99026;-74
2022/11/14 03:54:03;;;;;;;21.40;13.60;;;;;;;7.56;82.69;101279.55;124610;1300;98340;-76
2022/11/14 03:57:27;;;;;;;19.20;10.60;;;;;;;7.55;83.06;101276.55;124634;1305;98029;-75
2022/11/14 04:00:52;;;;;;;19.90;11.10;;;;;;;7.55;82.97;101269.65;124706;1309;98833;-76
2022/11/14 04:04:16;;;;;;;20.50;12.30;;;;;;;7.56;82.92;101261.44;124769;1303;101618;-75
2022/11/14 04:07:40;;;;;;;19.50;12.00;;;;;;;7.59;82.74;101258.92;124691;1309;98007;-75
2022/11/14 04:11:05;;;;;;;16.50;11.50;;;;;;;7.60;82.73;101261.56;124768;1300;98150;-75
2022/11/14 04:14:29;;;;;;;18.30;11.50;;;;;;;7.63;82.69;101259.39;124653;1309;99123;-75
2022/11/14 04:17:53;;;;;;;22.00;12.60;;;;;;;7.62;82.66;101257.31;124523;1295;99217;-75
2022/11/14 04:21:17;;;;;;;17.80;10.90;;;;;;;7.59;82.73;101251.48;124577;1299;98836;-75
2022/11/14 04:24:41;;;;;;;14.50;8.50;;;;;;;7.56;82.58;101250.69;124576;1292;98683;-75
2022/11/14 04:28:06;;;;;;;12.40;7.60;;;;;;;7.51;82.75;101250.68;124639;1300;98049;-75
2022/11/14 04:31:30;;;;;;;14.00;8.90;;;;;;;7.49;82.65;101243.86;124549;1309;98400;-75
2022/11/14 04:34:54;;;;;;;13.90;9.20;;;;;;;7.55;82.95;101244.88;124518;1292;98396;-75
2022/11/14 04:38:18;;;;;;;12.90;8.10;;;;;;;7.59;82.72;101241.45;124591;1301;98116;-75
2022/11/14 04:41:42;;;;;;;13.10;7.80;;;;;;;7.58;82.74;101241.31;124589;1293;99031;-75
2022/11/14 04:45:09;;;;;;;10.90;7.30;;;;;;;7.55;82.64;101234.58;124642;1309;99023;-75
2022/11/14 04:48:33;;;;;;;9.00;6.00;;;;;;;7.53;82.54;101237.42;124547;1294;98093;-75
2022/11/14 04:51:57;;;;;;;9.40;5.80;;;;;;;7.46;82.83;101237.53;124607;1300;98596;-75
2022/11/14 04:55:22;;;;;;;7.90;4.90;;;;;;;7.40;82.76;101236.92;124577;1300;99290;-73
2022/11/14 04:58:46;;;;;;;9.20;5.70;;;;;;;7.41;82.91;101240.52;124638;1310;98028;-75
2022/11/14 05:02:10;;;;;;;7.30;5.20;;;;;;;7.47;82.99;101243.31;124649;1303;98689;-75
2022/11/14 05:05:35;;;;;;;10.40;5.80;;;;;;;7.51;82.57;101238.09;124628;1307;99209;-74
2022/11/14 05:08:59;;;;;;;8.90;5.50;;;;;;;7.49;82.67;101237.70;124579;1303;98039;-75
2022/11/14 05:12:23;;;;;;;7.80;5.70;;;;;;;7.47;82.72;101242.08;124686;1301;98392;-75
2022/11/14 05:15:47;;;;;;;9.50;6.30;;;;;;;7.46;82.74;101237.02;124575;1310;98027;-74
2022/11/14 05:19:12;;;;;;;8.00;4.80;;;;;;;7.41;82.86;101240.05;124602;1300;98190;-75
2022/11/14 05:22:36;;;;;;;8.90;5.10;;;;;;;7.36;82.82;101242.89;124565;1295;99183;-74
2022/11/14 05:26:05;;;;;;;10.60;5.90;;;;;;;7.38;82.91;101245.52;124615;1302;98476;-73
2022/11/14 05:29:29;;;;;;;8.30;5.50;;;;;;;7.43;82.98;101242.86;124487;1302;98830;-73
2022/11/14 05:32:54;;;;;;;10.70;6.30;;;;;;;7.47;82.83;101241.33;124560;1309;98126;-73
2022/11/14 05:36:18;;;;;;;9.50;5.70;;;;;;;7.50;82.76;101245.08;124549;1303;98108;-74
2022/11/14 05:39:42;;;;;;;9.80;6.00;;;;;;;7.50;82.74;101246.67;124500;1305;98141;-74
2022/11/14 05:43:06;;;;;;;7.90;5.80;;;;;;;7.49;82.91;101249.54;124580;1303;99193;-74
2022/11/14 05:46:31;;;;;;;8.20;4.90;;;;;;;7.50;82.80;101244.39;124583;1301;98020;-75
2022/11/14 05:49:55;;;;;;;8.00;4.70;;;;;;;7.47;82.70;101249.67;124558;1301;98795;-73
2022/11/14 05:53:19;;;;;;;9.40;5.70;;;;;;;7.51;82.73;101255.09;124596;1301;99210;-73
2022/11/14 05:56:43;;;;;;;8.10;5.40;;;;;;;7.56;82.75;101255.23;124648;1309;99195;-75
2022/11/14 06:00:10;;;;;;;10.40;6.10;;;;;;;7.59;82.85;101250.09;124541;1302;99183;-77
2022/11/14 06:03:37;;;;;;;9.20;6.40;;;;;;;7.62;82.83;101245.65;124564;1302;99096;-75
2022/11/14 06:07:01;;;;;;;9.60;6.70;;;;;;;7.63;82.81;101250.89;124572;1301;98041;-73
2022/11/14 06:10:26;;;;;;;8.00;5.30;;;;;;;7.59;82.63;101246.73;124519;1302;98456;-74
2022/11/14 06:13:50;;;;;;;9.50;5.80;;;;;;;7.56;82.72;101243.58;124584;1302;98334;-74
2022/11/14 06:17:14;;;;;;;8.80;5.10;;;;;;;7.53;82.65;101244.52;124481;1302;99084;-74
2022/11/14 06:20:38;;;;;;;8.20;5.30;;;;;;;7.53;83.03;101244.70;124591;1295;98782;-75
2022/11/14 06:24:03;;;;;;;11.60;6.00;;;;;;;7.57;83.02;101245.30;124577;1309;98820;-75
2022/11/14 06:27:27;;;;;;;9.20;5.80;;;;;;;7.62;82.92;101241.41;124665;1309;98150;-76
2022/11/14 06:30:51;;;;;;;10.10;6.70;;;;;;;7.64;82.58;101239.98;124526;1309;98091;-75
2022/11/14 06:34:15;;;;;;;8.20;5.80;;;;;;;7.61;82.84;101241.23;124584;1301;98114;-75
2022/11/14 06:37:40;;;;;;;9.00;6.30;;;;;;;7.64;82.90;101244.77;124577;1303;98805;-75
2022/11/14 06:41:06;;;;;;;10.20;6.50;;;;;;;7.65;82.77;101254.64;124809;1302;99064;-75
2022/11/14 06:44:30;;;;;;;11.30;6.20;;;;;;;7.62;82.81;101256.29;124725;1301;98270;-75
2022/11/14 06:47:57;;;;;;;8.40;5.50;;;;;;;7.60;82.80;101249.11;124500;1303;98081;-75
2022/11/14 06:51:22;;;;;;;9.20;6.30;;;;;;;7.64;82.80;101255.41;124562;1308;98064;-74
2022/11/14 06:54:46;;;;;;;8.60;6.00;;;;;;;7.71;82.90;101256.51;124565;1301;98078;-76
2022/11/14 06:58:10;;;;;;;8.50;5.90;;;;;;;7.80;82.71;101254.05;124711;1303;99134;-76
2022/11/14 07:01:34;;;;;;;9.30;6.50;;;;;;;7.87;82.83;101250.75;124569;1309;98461;-77
2022/11/14 07:04:58;;;;;;;8.60;6.00;;;;;;;7.91;82.64;101253.09;124580;1307;98261;-77
2022/11/14 07:08:22;;;;;;;10.20;6.40;;;;;;;7.92;82.55;101253.43;124654;1302;99113;-76
2022/11/14 07:11:47;;;;;;;8.60;6.50;;;;;;;7.90;82.64;101251.95;124647;1301;99236;-77
2022/11/14 07:15:12;;;;;;;8.90;6.20;;;;;;;7.84;82.70;101247.56;124571;1295;98836;-76
2022/11/14 07:18:36;;;;;;;9.00;5.60;;;;;;;7.83;82.59;101245.19;124639;1302;98163;-77
2022/11/14 07:22:00;;;;;;;8.50;5.90;;;;;;;7.86;82.62;101243.56;124618;1303;99289;-77
2022/11/14 07:25:25;;;;;;;8.30;5.80;;;;;;;7.94;82.73;101242.77;124590;1302;98017;-78
2022/11/14 07:28:49;;;;;;;7.80;5.80;;;;;;;8.03;82.60;101238.60;124651;1301;98129;-77
2022/11/14 07:32:15;;;;;;;8.80;6.20;;;;;;;8.06;82.65;101241.16;124571;1309;99158;-77
2022/11/14 07:35:41;;;;;;;8.30;6.60;;;;;;;8.14;82.63;101240.80;124602;1299;98270;-77
2022/11/14 07:39:06;;;;;;;9.50;6.40;;;;;;;8.16;82.60;101239.06;124589;1309;98814;-77
2022/11/14 07:42:31;;;;;;;8.20;5.80;;;;;;;8.19;82.56;101237.79;124505;1302;98020;-78
2022/11/14 07:45:58;;;;;;;7.30;5.20;;;;;;;8.21;82.35;101244.67;124634;1301;98894;-75
2022/11/14 07:49:22;;;;;;;8.90;6.10;;;;;;;8.26;82.39;101249.13;124651;1295;98779;-75
2022/11/14 07:52:51;;;;;;;8.30;6.00;;;;;;;8.29;82.33;101240.39;124674;1302;99179;-75
2022/11/14 07:56:16;;;;;;;10.60;6.80;;;;;;;8.32;82.11;101238.08;124599;1295;98002;-76
2022/11/14 07:59:41;;;;;;;10.30;7.20;;;;;;;8.35;82.04;101237.49;124623;1309;98036;-75
2022/11/14 08:03:08;;;;;;;8.80;6.60;;;;;;;8.35;82.10;101230.77;124563;1302;98756;-75
2022/11/14 08:06:31;;;;;;;9.50;6.90;;;;;;;8.35;82.07;101229.16;124677;1302;99237;-77
2022/11/14 08:09:56;;;;;;;9.30;7.20;;;;;;;8.34;82.02;101224.09;124551;1302;99172;-76
2022/11/14 08:13:20;;;;;;;10.90;6.30;;;;;;;8.33;82.16;101219.40;124560;1302;98113;-77
2022/11/14 08:16:45;;;;;;;9.10;6.20;;;;;;;8.34;82.08;101219.31;124588;1309;98713;-77
2022/11/14 08:20:11;;;;;;;10.70;7.40;;;;;;;8.38;82.11;101212.59;124592;1302;98017;-75
2022/11/14 08:23:35;;;;;;;11.90;8.60;;;;;;;8.42;82.05;101212.85;124599;1301;98049;-75
2022/11/14 08:26:59;;;;;;;12.50;9.00;;;;;;;8.47;81.87;101209.11;124711;1309;99188;-75
2022/11/14 08:30:24;;;;;;;12.10;8.40;;;;;;;8.52;81.79;101203.25;124713;1304;98792;-77
2022/11/14 08:33:50;;;;;;;11.30;7.80;;;;;;;8.51;81.81;101206.70;124642;1296;98043;-76
2022/11/14 08:37:15;;;;;;;15.70;11.30;;;;;;;8.51;81.81;101205.61;124665;1301;99100;-76
2022/11/14 08:40:39;;;;;;;12.30;8.90;;;;;;;8.52;81.76;101198.60;124651;1303;99062;-76
2022/11/14 08:44:04;;;;;;;11.90;8.60;;;;;;;8.55;81.75;101198.45;124629;1302;99097;-77
2022/11/14 08:47:28;;;;;;;11.60;7.40;;;;;;;8.53;81.64;101194.88;124585;1302;98058;-77
2022/11/14 08:50:52;;;;;;;9.80;6.80;;;;;;;8.52;81.75;101198.63;124572;1303;99103;-75
2022/11/14 08:54:17;;;;;;;11.50;8.30;;;;;;;8.58;81.50;101194.80;124493;1301;99220;-75
2022/11/14 08:57:41;;;;;;;12.30;8.30;;;;;;;8.67;81.54;101190.63;124530;1302;99179;-76
2022/11/14 09:01:07;;;;;;;13.20;8.30;;;;;;;8.76;81.43;101191.70;124643;1302;98075;-75
2022/11/14 09:04:31;;;;;;;14.20;9.90;;;;;;;8.84;81.33;101191.29;124582;1303;99211;-76
2022/11/14 09:07:55;;;;;;;12.90;9.20;;;;;;;8.90;81.19;101186.01;124600;1301;98120;-76
2022/11/14 09:11:20;;;;;;;19.60;10.30;;;;;;;8.91;81.24;101187.19;124627;1303;99211;-76
2022/11/14 09:14:44;;;;;;;17.40;10.90;;;;;;;8.89;81.20;101184.98;124587;1302;99273;-76
2022/11/14 09:18:11;;;;;;;15.30;10.10;;;;;;;8.88;81.00;101186.33;124578;1309;99115;-77
2022/11/14 09:21:35;;;;;;;16.90;10.00;;;;;;;8.86;81.00;101180.56;124527;1309;98051;-75
2022/11/14 09:24:59;;;;;;;23.50;13.20;;;;;;;8.80;80.91;101176.80;124561;1309;98144;-76
2022/11/14 09:28:23;;;;;;;19.70;11.00;;;;;;;8.81;81.11;101180.13;124607;1308;98861;-76
2022/11/14 09:31:47;;;;;;;32.30;21.20;;;;;;;8.88;81.12;101177.98;124555;1308;99227;-76
2022/11/14 09:35:12;;;;;;;20.60;14.40;;;;;;;8.92;80.56;101180.70;124595;1298;98114;-76
2022/11/14 09:38:36;;;;;;;21.60;13.50;;;;;;;8.90;80.61;101175.73;124596;1298;99177;-76
2022/11/14 09:42:15;;;;;;;21.00;13.80;;;;;;;8.90;80.65;101175.55;124607;1303;98044;-76
2022/11/14 09:45:43;;;;;;;23.70;16.70;;;;;;;8.89;80.49;101172.41;124615;1302;98772;-77
2022/11/14 09:49:11;;;;;;;66.20;58.10;;;;;;;8.83;80.22;101170.23;124564;1301;99160;-77
2022/11/14 09:52:43;;;;;;;41.90;31.40;;;;;;;8.79;80.65;101167.15;124617;1302;98709;-77
2022/11/14 09:56:13;;;;;;;24.70;17.00;;;;;;;8.77;80.36;101171.15;124659;1303;98675;-77
2022/11/14 09:59:37;;;;;;;21.60;13.70;;;;;;;8.73;80.32;101166.92;124500;1309;101654;-77
2022/11/14 10:03:15;;;;;;;26.90;15.70;;;;;;;8.71;80.19;101163.66;124556;1307;99140;-77
2022/11/14 10:06:53;;;;;;;22.70;13.30;;;;;;;8.72;80.25;101161.64;124597;1309;98675;-77
2022/11/14 10:10:31;;;;;;;27.70;19.90;;;;;;;8.78;80.26;101158.50;124481;1309;99213;-75
2022/11/14 10:14:15;;;;;;;31.50;18.50;;;;;;;8.85;80.16;101151.95;124620;1303;98054;-76
2022/11/14 10:17:53;;;;;;;39.90;24.00;;;;;;;8.86;79.90;101147.63;124562;1306;98137;-76
2022/11/14 10:21:30;;;;;;;28.30;17.80;;;;;;;8.89;79.93;101150.91;124561;1302;98169;-77
2022/11/14 10:25:13;;;;;;;35.20;28.10;;;;;;;8.88;79.95;101139.86;124544;1318;98113;-76
2022/11/14 10:28:50;;;;;;;36.70;24.40;;;;;;;8.87;80.11;101129.08;124601;1309;98706;-76
2022/11/14 10:32:25;;;;;;;47.90;29.60;;;;;;;8.88;79.86;101126.20;124586;1309;98133;-76
2022/11/14 10:35:56;;;;;;;56.50;34.90;;;;;;;8.86;79.81;101117.25;124555;1309;98023;-77
2022/11/14 10:39:26;;;;;;;34.00;21.40;;;;;;;8.85;79.91;101111.70;124527;1303;98077;-77
2022/11/14 10:42:57;;;;;;;33.80;19.60;;;;;;;8.91;79.95;101107.27;124561;1301;98463;-77
2022/11/14 10:46:26;;;;;;;49.10;30.10;;;;;;;9.00;79.85;101106.94;124528;1303;98096;-77
2022/11/14 10:49:55;;;;;;;53.90;35.50;;;;;;;9.04;79.52;101102.17;124713;1309;98122;-75
2022/11/14 10:53:27;;;;;;;66.30;40.90;;;;;;;9.08;79.85;101106.67;124519;1299;99219;-75
2022/11/14 10:56:53;;;;;;;44.10;26.30;;;;;;;9.17;79.78;101102.89;124579;1302;98123;-75
2022/11/14 11:00:21;;;;;;;46.40;28.00;;;;;;;9.24;79.66;101091.52;124578;1303;98826;-76
2022/11/14 11:03:45;;;;;;;35.80;22.00;;;;;;;9.30;79.49;101090.71;124597;1308;99207;-76
2022/11/14 11:11:29;;;;;;;40.70;25.30;;;;;;;9.17;78.70;101094.80;124625;1303;98292;-76
2022/11/14 11:15:14;;;;;;;42.70;26.60;;;;;;;9.05;78.91;101090.02;124681;1306;99136;-76
2022/11/14 11:18:38;;;;;;;44.40;26.90;;;;;;;8.97;79.07;101088.20;124543;1309;99199;-77
2022/11/14 11:22:03;;;;;;;31.10;18.00;;;;;;;8.92;79.08;101090.02;124522;1303;98249;-77
2022/11/14 11:25:29;;;;;;;37.50;21.50;;;;;;;8.89;78.92;101085.65;124650;1298;98088;-75
2022/11/14 11:29:15;;;;;;;40.20;24.00;;;;;;;8.89;79.21;101081.20;124558;1308;97994;-75
2022/11/14 11:32:39;;;;;;;33.90;20.90;;;;;;;8.97;79.17;101076.29;124518;1298;98039;-76
2022/11/14 11:36:07;;;;;;;30.70;19.40;;;;;;;9.03;79.02;101072.98;124542;1295;99248;-76
2022/11/14 11:39:35;;;;;;;44.30;24.80;;;;;;;9.05;78.87;101065.38;124549;1303;98108;-76
2022/11/14 11:43:04;;;;;;;36.00;20.50;;;;;;;9.05;79.09;101060.07;124707;1302;99160;-76
2022/11/14 11:46:39;;;;;;;39.30;24.10;;;;;;;9.06;78.86;101056.05;124660;1308;99217;-75
2022/11/14 11:50:04;;;;;;;41.90;27.10;;;;;;;9.08;78.85;101055.42;124563;1301;99090;-75
2022/11/14 11:53:34;;;;;;;31.90;19.90;;;;;;;9.03;78.69;101060.00;124611;1309;99066;-76
2022/11/14 11:57:03;;;;;;;44.10;28.40;;;;;;;8.95;78.83;101054.46;124610;1303;98700;-75
2022/11/14 12:00:28;;;;;;;40.90;23.20;;;;;;;8.88;78.91;101048.64;124566;1306;99141;-75
2022/11/14 12:03:54;;;;;;;39.20;26.80;;;;;;;8.85;79.16;101054.35;124545;1309;98038;-77
2022/11/14 12:07:22;;;;;;;33.80;22.10;;;;;;;8.87;79.09;101053.31;124601;1309;98058;-75
2022/11/14 12:10:46;;;;;;;32.90;19.70;;;;;;;8.94;79.15;101048.70;124671;1303;99066;-76
2022/11/14 12:14:31;;;;;;;31.60;19.30;;;;;;;8.99;78.96;101048.85;124700;1303;99179;-77
2022/11/14 12:18:15;;;;;;;29.60;19.30;;;;;;;9.01;78.87;101048.08;124596;1303;99100;-77
2022/11/14 12:21:58;;;;;;;33.00;20.00;;;;;;;9.02;78.79;101043.91;124609;1308;99219;-77
2022/11/14 12:25:46;;;;;;;28.70;18.70;;;;;;;9.01;78.98;101032.63;124629;1308;98045;-77
2022/11/14 12:29:26;;;;;;;42.50;25.80;;;;;;;9.04;78.97;101033.67;124704;1308;98164;-77
2022/11/14 12:32:56;;;;;;;45.30;28.00;;;;;;;9.07;78.83;101032.74;124592;1308;98105;-74
2022/11/14 12:36:27;;;;;;;32.80;19.30;;;;;;;9.05;78.96;101030.77;124552;1308;98388;-77
2022/11/14 12:40:00;;;;;;;42.00;22.80;;;;;;;9.02;78.79;101022.27;124540;1306;98107;-77
2022/11/14 12:43:33;;;;;;;36.50;22.00;;;;;;;9.01;78.73;101024.17;124580;1324;98049;-75
2022/11/14 12:47:18;;;;;;;31.10;19.70;;;;;;;9.06;78.48;101017.60;124621;1309;99176;-75
2022/11/14 12:50:43;;;;;;;31.10;19.90;;;;;;;9.11;78.55;101017.16;124622;1306;98119;-76
2022/11/14 12:54:44;;;;;;;58.80;34.60;;;;;;;9.14;78.50;101014.61;124546;1308;98107;-76
2022/11/14 12:58:10;;;;;;;44.50;25.90;;;;;;;9.10;78.73;101014.19;124671;1303;98177;-75
2022/11/14 13:01:49;;;;;;;66.00;33.50;;;;;;;9.05;78.41;101013.55;124491;1303;98331;-75
2022/11/14 13:05:34;;;;;;;61.90;32.80;;;;;;;8.98;78.63;101007.85;124600;1311;98091;-76
2022/11/14 13:09:31;;;;;;;54.00;27.90;;;;;;;8.99;78.54;101005.83;124675;1308;98785;-75
2022/11/14 13:24:18;;;;;;;55.50;27.00;;;;;;;8.94;78.61;100997.08;124611;1310;99278;-75
2022/11/14 13:27:42;;;;;;;55.10;29.20;;;;;;;8.97;78.73;100984.20;124585;1306;98074;-75
2022/11/14 13:31:20;;;;;;;47.20;26.90;;;;;;;8.98;78.46;100987.64;124712;1301;98038;-77
2022/11/14 13:34:51;;;;;;;41.20;25.00;;;;;;;8.97;78.65;100979.79;124589;1308;98785;-75
2022/11/14 13:38:39;;;;;;;47.50;27.10;;;;;;;8.93;78.70;100981.86;124494;1306;98674;-75
2022/11/14 13:42:25;;;;;;;37.40;23.10;;;;;;;8.91;78.67;100981.46;124683;1303;98015;-76
2022/11/14 13:45:58;;;;;;;44.90;27.20;;;;;;;8.88;78.73;100974.29;124592;1315;98108;-76
2022/11/14 13:49:40;;;;;;;37.50;22.30;;;;;;;8.84;78.61;100974.27;124513;1298;98725;-76
2022/11/14 13:53:15;;;;;;;31.30;18.00;;;;;;;8.78;78.70;100969.74;124615;1308;98112;-75
2022/11/14 13:56:52;;;;;;;27.90;17.50;;;;;;;8.72;78.79;100968.85;124693;1301;99170;-75
2022/11/14 14:00:18;;;;;;;30.20;18.80;;;;;;;8.71;78.87;100968.00;124640;1307;98019;-76
2022/11/14 14:03:56;;;;;;;31.30;18.20;;;;;;;8.72;78.74;100961.71;124589;1305;99075;-75
2022/11/14 14:07:32;;;;;;;30.90;20.30;;;;;;;8.75;78.95;100958.33;124590;1302;98833;-76
2022/11/14 14:11:16;;;;;;;36.30;22.30;;;;;;;8.76;78.90;100958.73;124671;1301;98353;-76
2022/11/14 14:14:59;;;;;;;36.50;21.50;;;;;;;8.73;78.73;100957.57;124602;1315;97996;-76
2022/11/14 14:18:35;;;;;;;44.90;25.00;;;;;;;8.63;78.76;100951.10;124616;1309;98693;-76
2022/11/14 14:22:06;;;;;;;34.10;20.40;;;;;;;8.55;78.82;100947.48;124539;1309;98020;-76
2022/11/14 14:25:39;;;;;;;31.80;18.80;;;;;;;8.46;78.99;100938.61;124454;1306;98766;-75
2022/11/14 14:29:17;;;;;;;35.30;19.70;;;;;;;8.35;79.09;100929.23;124559;1309;99131;-75
2022/11/14 14:32:42;;;;;;;42.70;23.60;;;;;;;8.28;79.13;100920.18;124596;1306;98074;-75
2022/11/14 14:36:16;;;;;;;38.00;20.90;;;;;;;8.27;79.24;100920.96;124949;1303;98950;-75
2022/11/14 14:39:40;;;;;;;37.60;21.10;;;;;;;8.29;79.30;100915.30;124572;1306;99160;-76
2022/11/14 14:43:07;;;;;;;38.90;21.60;;;;;;;8.31;79.34;100910.08;124498;1305;203849;-76
2022/11/14 14:46:33;;;;;;;32.60;20.80;;;;;;;8.29;79.25;100907.14;124578;1306;98789;-76
2022/11/14 14:49:58;;;;;;;34.00;21.70;;;;;;;8.26;79.29;100906.27;124539;1319;98792;-75
2022/11/14 14:53:24;;;;;;;34.10;20.70;;;;;;;8.19;79.20;100899.27;124571;1302;98132;-76
2022/11/14 14:56:58;;;;;;;35.90;20.30;;;;;;;8.11;79.39;100894.79;124601;1303;98014;-75
2022/11/14 15:00:25;;;;;;;32.90;16.90;;;;;;;8.03;79.47;100900.30;124515;1315;98373;-75
2022/11/14 15:03:52;;;;;;;30.20;17.40;;;;;;;8.02;79.62;100902.20;124583;1302;98149;-75
2022/11/14 15:07:23;;;;;;;33.60;20.50;;;;;;;8.00;79.48;100904.30;124540;1303;98064;-75
2022/11/14 15:10:47;;;;;;;32.90;19.70;;;;;;;8.01;79.62;100907.59;124646;1306;98668;-75
2022/11/14 15:14:16;;;;;;;31.50;19.30;;;;;;;8.03;79.46;100898.92;124672;1306;98037;-75
2022/11/14 15:17:40;;;;;;;32.60;20.10;;;;;;;8.06;79.62;100902.59;124629;1298;98900;-75
2022/11/14 15:21:23;;;;;;;33.80;21.10;;;;;;;8.06;79.66;100900.24;124622;1301;99039;-77
2022/11/14 15:25:17;;;;;;;33.80;21.30;;;;;;;8.03;79.66;100897.16;124610;1309;98014;-76
2022/11/14 15:28:41;;;;;;;28.10;16.00;;;;;;;8.00;79.71;100902.38;124664;1308;99067;-74
2022/11/14 15:32:06;;;;;;;28.50;16.60;;;;;;;7.96;79.79;100908.48;124593;1301;98845;-76
2022/11/14 15:35:33;;;;;;;28.10;16.00;;;;;;;7.94;79.72;100908.15;124736;1312;98833;-75
2022/11/14 15:39:02;;;;;;;29.30;17.90;;;;;;;7.97;79.95;100905.61;124625;1298;98130;-75
2022/11/14 15:42:30;;;;;;;30.90;19.60;;;;;;;8.00;79.90;100901.98;124540;1303;99212;-75
2022/11/14 15:45:55;;;;;;;36.50;21.50;;;;;;;8.04;79.81;100895.50;124595;1299;99188;-74
2022/11/14 15:49:25;;;;;;;48.30;26.40;;;;;;;8.04;79.78;100891.75;124710;1300;98016;-76
2022/11/14 15:52:52;;;;;;;44.90;26.20;;;;;;;7.99;79.71;100891.23;124881;1308;99198;-76
2022/11/14 15:56:17;;;;;;;41.60;25.40;;;;;;;7.88;79.74;100889.30;124627;1305;99230;-76
2022/11/14 15:59:41;;;;;;;43.20;25.90;;;;;;;7.77;79.86;100887.45;124764;1305;98050;-74
2022/11/14 16:03:14;;;;;;;46.50;26.00;;;;;;;7.64;79.91;100887.46;124627;1299;98048;-76
2022/11/14 16:06:38;;;;;;;44.60;26.20;;;;;;;7.51;79.90;100888.45;124716;1301;98997;-75
2022/11/14 16:10:03;;;;;;;51.80;30.20;;;;;;;7.44;80.10;100889.65;124723;1308;98045;-77